Terminal Aerodrome Forecast
Issued by NWS

Current Version | Previous Version | Text Only | Print | Product List | Glossary On
Versions: 1 2 3 4 5 6 7 8 9 10 11 12 13 14 15 16 17 18 19 20 21 22 23 24 25 26 27 28 29 30
446
FTAK31 PAFA 301740
TAFAQT
TAF
PAQT 301740Z 3018/3118 22013KT P6SM SCT025 OVC035
     FM302100 27012KT P6SM -SHRA SCT035 BKN050
     FM310100 32010KT P6SM -SHRA SCT025 BKN035 OVC050
     FM310700 26010KT P6SM BKN025 OVC040=

USA.gov is the U.S. government's official web portal to all federal, state and local government web resources and services.